createdAt,value
2023-03-26T00:01:36.572Z,99461.25
2023-03-26T00:04:07.993Z,99462.50
2023-03-26T00:06:39.647Z,99462.22
2023-03-26T00:09:13.402Z,99463.53
2023-03-26T00:11:41.900Z,99460.19
2023-03-26T00:14:14.023Z,99460.28
2023-03-26T00:16:43.091Z,99471.41
2023-03-26T00:19:12.613Z,99462.16
2023-03-26T00:21:41.675Z,99462.00
2023-03-26T00:24:11.845Z,99476.50
2023-03-26T00:26:41.031Z,99466.50
2023-03-26T00:29:09.830Z,99473.84
2023-03-26T00:31:40.987Z,99472.09
2023-03-26T00:34:12.042Z,99463.75
2023-03-26T00:36:42.192Z,99471.78
2023-03-26T00:39:10.664Z,99476.38
2023-03-26T00:41:43.286Z,99480.47
2023-03-26T00:44:11.831Z,99476.63
2023-03-26T00:46:41.334Z,99475.66
2023-03-26T00:49:10.954Z,99475.72
2023-03-26T00:51:39.669Z,99477.75
2023-03-26T00:54:08.764Z,99473.91
2023-03-26T00:56:37.249Z,99462.56
2023-03-26T00:59:05.791Z,99470.75
2023-03-26T01:01:33.890Z,99463.47
2023-03-26T01:04:28.170Z,99458.28
2023-03-26T01:06:59.814Z,99453.88
2023-03-26T01:09:33.668Z,99457.75
2023-03-26T01:12:05.059Z,99457.06
2023-03-26T01:14:33.255Z,99458.88
2023-03-26T01:17:03.605Z,99464.03
2023-03-26T01:19:40.596Z,99472.66
2023-03-26T01:22:14.834Z,99467.69
2023-03-26T01:24:55.790Z,99462.22
2023-03-26T01:27:38.885Z,99475.28
2023-03-26T01:30:13.846Z,99477.97
2023-03-26T01:32:51.211Z,99476.56
2023-03-26T01:35:31.086Z,99470.22
2023-03-26T01:38:11.107Z,99473.13
2023-03-26T01:40:46.986Z,99453.94
2023-03-26T01:43:25.957Z,99464.12
2023-03-26T01:45:54.930Z,99458.34
2023-03-26T01:48:31.567Z,99462.50
2023-03-26T01:50:59.921Z,99463.81
2023-03-26T01:53:28.540Z,99467.09
2023-03-26T01:56:10.917Z,99453.03
2023-03-26T01:58:44.810Z,99459.63
2023-03-26T02:01:24.642Z,99457.53
2023-03-26T02:04:01.777Z,99451.44
2023-03-26T02:06:38.201Z,99450.16
2023-03-26T02:09:09.982Z,99451.97
2023-03-26T02:11:41.804Z,99455.09
2023-03-26T02:14:10.930Z,99454.44
2023-03-26T02:16:39.250Z,99443.25
2023-03-26T02:19:15.719Z,99449.53
2023-03-26T02:21:45.936Z,99448.62
2023-03-26T02:24:14.196Z,99445.75
2023-03-26T02:26:43.708Z,99445.00
2023-03-26T02:29:12.456Z,99438.75
2023-03-26T02:31:41.043Z,99451.22
2023-03-26T02:34:09.186Z,99451.09
2023-03-26T02:36:37.908Z,99440.44
2023-03-26T02:39:06.328Z,99441.59
2023-03-26T02:41:34.605Z,99444.00
2023-03-26T02:44:05.205Z,99444.31
2023-03-26T02:46:36.031Z,99441.34
2023-03-26T02:49:05.486Z,99439.72
2023-03-26T02:51:34.972Z,99445.13
2023-03-26T02:54:03.351Z,99439.66
2023-03-26T02:56:34.160Z,99435.69
2023-03-26T02:59:04.661Z,99428.16
2023-03-26T03:01:35.124Z,99439.97
2023-03-26T03:04:05.039Z,99434.44
2023-03-26T03:06:33.741Z,99429.00
2023-03-26T03:09:02.731Z,99427.69
2023-03-26T03:11:32.851Z,99430.09
2023-03-26T03:14:01.522Z,99424.09
2023-03-26T03:16:32.976Z,99423.88
2023-03-26T03:19:01.872Z,99423.63
2023-03-26T03:21:30.888Z,99421.72
2023-03-26T03:24:00.517Z,99422.16
2023-03-26T03:26:30.066Z,99418.09
2023-03-26T03:28:59.583Z,99423.53
2023-03-26T03:31:29.379Z,99418.72
2023-03-26T03:34:00.393Z,99429.69
2023-03-26T03:36:33.182Z,99430.22
2023-03-26T03:39:02.958Z,99420.91
2023-03-26T03:41:31.292Z,99425.38
2023-03-26T03:44:01.680Z,99430.81
2023-03-26T03:46:30.255Z,99429.50
2023-03-26T03:48:59.891Z,99431.91
2023-03-26T03:51:28.433Z,99427.69
2023-03-26T03:53:57.448Z,99426.31
2023-03-26T03:56:26.747Z,99419.72
2023-03-26T03:58:58.321Z,99428.53
2023-03-26T04:01:27.118Z,99432.53
2023-03-26T04:03:55.457Z,99437.72
2023-03-26T04:06:25.448Z,99443.63
2023-03-26T04:08:53.740Z,99441.59
2023-03-26T04:11:22.503Z,99441.72
2023-03-26T04:13:52.287Z,99436.41
2023-03-26T04:16:21.144Z,99443.28
2023-03-26T04:18:49.671Z,99439.19
2023-03-26T04:21:17.672Z,99438.81
2023-03-26T04:23:47.259Z,99444.47
2023-03-26T04:26:19.785Z,99438.22
2023-03-26T04:28:53.324Z,99429.31
2023-03-26T04:31:29.112Z,99435.81
2023-03-26T04:34:05.562Z,99438.97
2023-03-26T04:36:35.491Z,99443.06
2023-03-26T04:39:06.754Z,99439.31
2023-03-26T04:41:38.404Z,99434.97
2023-03-26T04:44:06.967Z,99438.22
2023-03-26T04:46:36.600Z,99437.87
2023-03-26T04:49:05.119Z,99434.25
2023-03-26T04:51:39.252Z,99435.94
2023-03-26T04:54:12.687Z,99434.72
2023-03-26T04:56:45.521Z,99436.91
2023-03-26T04:59:18.003Z,99430.25
2023-03-26T05:01:46.634Z,99434.84
2023-03-26T05:04:15.596Z,99436.41
2023-03-26T05:06:44.032Z,99429.06
2023-03-26T05:09:14.505Z,99429.53
2023-03-26T05:11:43.569Z,99430.13
2023-03-26T05:14:11.547Z,99421.25
2023-03-26T05:16:41.565Z,99430.37
2023-03-26T05:19:10.277Z,99427.84
2023-03-26T05:21:38.235Z,99430.25
2023-03-26T05:24:07.032Z,99427.38
2023-03-26T05:26:37.598Z,99422.06
2023-03-26T05:29:06.289Z,99419.41
2023-03-26T05:31:34.680Z,99424.94
2023-03-26T05:34:03.270Z,99419.88
2023-03-26T05:36:31.466Z,99424.69
2023-03-26T05:39:00.496Z,99430.69
2023-03-26T05:41:30.702Z,99425.38
2023-03-26T05:44:00.138Z,99426.19
2023-03-26T05:46:28.878Z,99429.56
2023-03-26T05:48:56.928Z,99435.09
2023-03-26T05:51:25.641Z,99422.63
2023-03-26T05:53:56.432Z,99427.06
2023-03-26T05:56:26.724Z,99430.69
2023-03-26T05:59:01.158Z,99414.69
2023-03-26T06:01:29.811Z,99417.50
2023-03-26T06:03:59.005Z,99418.06
2023-03-26T06:06:27.866Z,99414.22
2023-03-26T06:09:02.362Z,99401.25
2023-03-26T06:11:32.824Z,99402.84
2023-03-26T06:14:02.826Z,99401.88
2023-03-26T06:16:31.192Z,99401.50
2023-03-26T06:19:00.572Z,99410.62
2023-03-26T06:21:29.755Z,99408.31
2023-03-26T06:23:58.266Z,99416.66
2023-03-26T06:26:27.626Z,99408.00
2023-03-26T06:28:56.122Z,99414.59
2023-03-26T06:31:25.572Z,99414.06
2023-03-26T06:33:54.648Z,99409.56
2023-03-26T06:36:22.677Z,99410.12
2023-03-26T06:38:50.987Z,99405.09
2023-03-26T06:41:19.353Z,99401.78
2023-03-26T06:43:50.392Z,99409.34
2023-03-26T06:46:18.737Z,99410.19
2023-03-26T06:48:56.579Z,99399.50
2023-03-26T06:51:25.694Z,99406.78
2023-03-26T06:53:55.299Z,99405.41
2023-03-26T06:56:25.323Z,99401.91
2023-03-26T06:58:55.766Z,99402.44
2023-03-26T07:01:31.128Z,99400.53
2023-03-26T07:04:15.619Z,99399.22
2023-03-26T07:06:56.236Z,99405.03
2023-03-26T07:09:31.273Z,99399.56
2023-03-26T07:12:01.269Z,99399.87
2023-03-26T07:14:32.708Z,99398.44
2023-03-26T07:17:01.401Z,99402.09
2023-03-26T07:19:31.546Z,99399.28
2023-03-26T07:22:04.226Z,99395.50
2023-03-26T07:24:38.608Z,99391.75
2023-03-26T07:27:18.680Z,99394.66
2023-03-26T07:29:54.245Z,99379.72
2023-03-26T07:32:31.252Z,99379.28
2023-03-26T07:35:07.272Z,99381.88
2023-03-26T07:37:49.369Z,99382.59
2023-03-26T07:40:29.154Z,99376.63
2023-03-26T07:43:07.054Z,99375.72
2023-03-26T07:45:41.176Z,99372.34
2023-03-26T07:48:17.048Z,99372.00
2023-03-26T07:50:49.302Z,99364.94
2023-03-26T07:53:20.182Z,99360.63
2023-03-26T07:55:54.314Z,99370.97
2023-03-26T07:58:40.901Z,99373.25
2023-03-26T08:01:16.166Z,99370.41
2023-03-26T08:03:58.701Z,99363.88
2023-03-26T08:06:55.380Z,99358.13
2023-03-26T08:09:31.901Z,99358.31
2023-03-26T08:12:09.663Z,99360.50
2023-03-26T08:14:48.679Z,99365.81
2023-03-26T08:17:22.667Z,99354.06
2023-03-26T08:20:07.475Z,99347.69
2023-03-26T08:22:41.170Z,99346.22
2023-03-26T08:25:20.876Z,99351.47
2023-03-26T08:28:00.673Z,99343.16
2023-03-26T08:30:31.009Z,99345.37
2023-03-26T08:33:01.358Z,99345.53
2023-03-26T08:35:30.050Z,99342.31
2023-03-26T08:37:59.395Z,99345.16
2023-03-26T08:40:53.739Z,99346.75
2023-03-26T08:43:42.423Z,99337.34
2023-03-26T08:46:30.316Z,99337.50
2023-03-26T08:49:24.900Z,99337.06
2023-03-26T08:52:24.669Z,99338.03
2023-03-26T08:55:27.037Z,99330.97
2023-03-26T08:58:19.920Z,99328.25
2023-03-26T09:01:12.975Z,99324.66
2023-03-26T09:04:13.865Z,99338.37
2023-03-26T09:07:13.589Z,99327.91
2023-03-26T09:10:17.234Z,99329.78
2023-03-26T09:13:19.636Z,99322.78
2023-03-26T09:16:12.446Z,99307.16
2023-03-26T09:19:11.895Z,99309.06
2023-03-26T09:22:14.182Z,99304.97
2023-03-26T09:25:13.559Z,99307.06
2023-03-26T09:28:01.462Z,99304.75
2023-03-26T09:31:03.544Z,99294.69
2023-03-26T09:33:59.455Z,99291.03
2023-03-26T09:36:44.785Z,99284.78
2023-03-26T09:39:19.728Z,99289.12
2023-03-26T09:42:04.066Z,99283.13
2023-03-26T09:45:30.181Z,99293.66
2023-03-26T09:48:35.976Z,99287.44
2023-03-26T09:51:23.878Z,99294.72
2023-03-26T09:54:07.106Z,99293.88
2023-03-26T09:56:47.064Z,99295.16
2023-03-26T09:59:41.921Z,99280.56
2023-03-26T10:02:23.295Z,99284.09
2023-03-26T10:05:26.814Z,99277.06
2023-03-26T10:08:07.741Z,99276.06
2023-03-26T10:10:44.218Z,99277.91
2023-03-26T10:13:27.207Z,99275.41
2023-03-26T10:16:17.033Z,99271.00
2023-03-26T10:18:58.770Z,99260.16
2023-03-26T10:21:38.428Z,99256.28
2023-03-26T10:24:32.629Z,99250.53
2023-03-26T10:27:16.466Z,99237.84
2023-03-26T10:30:24.922Z,99229.56
2023-03-26T10:33:03.782Z,99228.78
2023-03-26T10:35:43.281Z,99224.94
2023-03-26T10:38:32.873Z,99220.44
2023-03-26T10:41:09.955Z,99216.25
2023-03-26T10:44:07.285Z,99218.16
2023-03-26T10:46:59.635Z,99213.47
2023-03-26T10:49:49.058Z,99212.91
2023-03-26T10:52:21.446Z,99211.03
2023-03-26T10:54:57.257Z,99206.63
2023-03-26T10:57:40.109Z,99215.03
2023-03-26T11:00:18.314Z,99207.31
2023-03-26T11:03:04.334Z,99199.53
2023-03-26T11:05:50.930Z,99197.28
2023-03-26T11:08:31.239Z,99198.44
2023-03-26T11:11:12.984Z,99189.31
2023-03-26T11:13:49.639Z,99191.13
2023-03-26T11:16:26.625Z,99199.28
2023-03-26T11:19:02.682Z,99194.38
2023-03-26T11:21:37.104Z,99190.63
2023-03-26T11:24:27.855Z,99191.13
2023-03-26T11:27:15.979Z,99198.06
2023-03-26T11:29:57.638Z,99189.03
2023-03-26T11:32:40.508Z,99194.44
2023-03-26T11:35:40.399Z,99188.06
2023-03-26T11:38:17.211Z,99182.88
2023-03-26T11:40:51.008Z,99187.06
2023-03-26T11:43:25.237Z,99188.41
2023-03-26T11:45:54.759Z,99188.25
2023-03-26T11:48:27.753Z,99177.03
2023-03-26T11:51:01.651Z,99175.19
2023-03-26T11:53:34.592Z,99175.34
2023-03-26T11:56:06.617Z,99177.87
2023-03-26T11:58:42.669Z,99178.84
2023-03-26T12:01:22.732Z,99183.09
2023-03-26T12:03:59.916Z,99180.91
2023-03-26T12:06:29.088Z,99177.56
2023-03-26T12:08:58.071Z,99177.53
2023-03-26T12:11:28.923Z,99180.41
2023-03-26T12:14:00.433Z,99178.25
2023-03-26T12:16:29.997Z,99171.22
2023-03-26T12:19:00.714Z,99162.56
2023-03-26T12:21:28.730Z,99153.63
2023-03-26T12:23:59.981Z,99152.41
2023-03-26T12:26:37.575Z,99152.81
2023-03-26T12:29:09.105Z,99145.63
2023-03-26T12:31:54.105Z,99139.66
2023-03-26T12:34:24.122Z,99146.66
2023-03-26T12:36:54.241Z,99143.97
2023-03-26T12:40:08.661Z,99140.37
2023-03-26T12:44:49.730Z,99145.88
2023-03-26T12:45:17.532Z,99144.41
2023-03-26T12:48:01.545Z,99147.75
2023-03-26T12:50:44.733Z,99149.13
2023-03-26T12:53:29.110Z,99144.72
2023-03-26T12:56:03.845Z,99139.59
2023-03-26T12:59:02.351Z,99140.13
2023-03-26T13:01:45.222Z,99135.97
2023-03-26T13:04:43.630Z,99143.34
2023-03-26T13:07:26.291Z,99141.19
2023-03-26T13:10:08.606Z,99140.03
2023-03-26T13:12:46.308Z,99132.72
2023-03-26T13:15:23.750Z,99133.78
2023-03-26T13:18:04.381Z,99128.41
2023-03-26T13:20:46.403Z,99125.78
2023-03-26T13:23:26.808Z,99128.06
2023-03-26T13:26:06.131Z,99119.22
2023-03-26T13:28:42.992Z,99121.88
2023-03-26T13:31:19.226Z,99111.81
2023-03-26T13:33:58.807Z,99119.38
2023-03-26T13:36:37.151Z,99110.53
2023-03-26T13:39:21.162Z,99114.19
2023-03-26T13:42:04.082Z,99119.59
2023-03-26T13:44:45.673Z,99118.72
2023-03-26T13:47:17.858Z,99115.53
2023-03-26T13:49:51.970Z,99115.72
2023-03-26T13:52:26.449Z,99117.34
2023-03-26T13:55:03.586Z,99114.88
2023-03-26T13:57:35.575Z,99121.56
2023-03-26T14:00:12.607Z,99123.41
2023-03-26T14:02:42.981Z,99110.66
2023-03-26T14:05:18.543Z,99110.66
2023-03-26T14:07:52.387Z,99117.22
2023-03-26T14:10:25.520Z,99114.84
2023-03-26T14:13:01.113Z,99119.59
2023-03-26T14:15:38.029Z,99121.56
2023-03-26T14:18:23.782Z,99127.75
2023-03-26T14:21:15.296Z,99127.75
2023-03-26T14:24:12.240Z,99131.34
2023-03-26T14:27:03.371Z,99137.19
2023-03-26T14:29:39.626Z,99128.75
2023-03-26T14:32:38.011Z,99134.47
2023-03-26T14:35:21.402Z,99138.94
2023-03-26T14:38:16.306Z,99135.66
2023-03-26T14:40:57.905Z,99128.12
2023-03-26T14:44:07.655Z,99133.25
2023-03-26T14:46:54.975Z,99126.81
2023-03-26T14:49:58.021Z,99133.13
2023-03-26T14:52:34.545Z,99130.41
2023-03-26T14:55:07.651Z,99129.12
2023-03-26T14:57:59.466Z,99128.81
2023-03-26T15:00:42.935Z,99122.28
2023-03-26T15:03:42.003Z,99126.19
2023-03-26T15:06:45.248Z,99129.25
2023-03-26T15:09:50.977Z,99124.53
2023-03-26T15:12:32.825Z,99131.41
2023-03-26T15:15:41.951Z,99129.72
2023-03-26T15:18:34.613Z,99127.28
2023-03-26T15:21:36.890Z,99127.44
2023-03-26T15:24:30.283Z,99127.56
2023-03-26T15:27:43.366Z,99127.88
2023-03-26T15:30:35.774Z,99126.50
2023-03-26T15:33:34.256Z,99128.88
2023-03-26T15:36:21.513Z,99129.28
2023-03-26T15:39:18.518Z,99128.41
2023-03-26T15:41:54.536Z,99126.72
2023-03-26T15:44:40.977Z,99129.28
2023-03-26T15:47:57.301Z,99134.88
2023-03-26T15:50:37.984Z,99132.22
2023-03-26T15:53:19.482Z,99119.41
2023-03-26T15:56:01.758Z,99123.75
2023-03-26T15:58:36.810Z,99122.00
2023-03-26T16:01:19.121Z,99123.28
2023-03-26T16:03:58.358Z,99121.34
2023-03-26T16:06:31.873Z,99122.84
2023-03-26T16:09:17.931Z,99127.03
2023-03-26T16:11:53.942Z,99122.19
2023-03-26T16:14:24.429Z,99117.53
2023-03-26T16:16:55.994Z,99124.22
2023-03-26T16:19:50.075Z,99117.87
2023-03-26T16:22:50.720Z,99126.13
2023-03-26T16:25:31.888Z,99119.50
2023-03-26T16:28:27.333Z,99124.37
2023-03-26T16:31:38.637Z,99117.22
2023-03-26T16:34:26.266Z,99120.72
2023-03-26T16:36:59.450Z,99122.72
2023-03-26T16:39:41.307Z,99121.03
2023-03-26T16:42:30.878Z,99121.03
2023-03-26T16:45:15.925Z,99113.16
2023-03-26T16:47:52.415Z,99115.47
2023-03-26T16:50:30.220Z,99115.63
2023-03-26T16:53:17.070Z,99119.13
2023-03-26T16:55:52.828Z,99123.38
2023-03-26T16:58:31.590Z,99110.78
2023-03-26T17:01:15.964Z,99114.06
2023-03-26T17:03:54.998Z,99114.81
2023-03-26T17:07:08.679Z,99117.69
2023-03-26T17:09:52.710Z,99119.38
2023-03-26T17:12:32.667Z,99120.78
2023-03-26T17:15:12.040Z,99116.34
2023-03-26T17:18:07.086Z,99121.66
2023-03-26T17:20:40.534Z,99118.13
2023-03-26T17:23:25.673Z,99122.78
2023-03-26T17:26:04.510Z,99120.78
2023-03-26T17:28:50.488Z,99127.28
2023-03-26T17:31:31.521Z,99125.56
2023-03-26T17:34:32.792Z,99123.87
2023-03-26T17:37:04.248Z,99132.03
2023-03-26T17:40:12.578Z,99139.63
2023-03-26T17:43:06.304Z,99141.63
2023-03-26T17:45:39.373Z,99140.25
2023-03-26T17:48:18.099Z,99145.16
2023-03-26T17:50:51.846Z,99146.44
2023-03-26T17:53:25.306Z,99152.09
2023-03-26T17:55:56.436Z,99146.87
2023-03-26T17:58:31.907Z,99152.34
2023-03-26T18:01:08.653Z,99153.19
2023-03-26T18:03:44.322Z,99150.53
2023-03-26T18:06:19.701Z,99156.00
2023-03-26T18:09:06.349Z,99159.22
2023-03-26T18:12:05.107Z,99159.38
2023-03-26T18:14:59.084Z,99168.13
2023-03-26T18:17:27.251Z,99161.91
2023-03-26T18:20:06.125Z,99171.19
2023-03-26T18:22:34.392Z,99170.34
2023-03-26T18:25:04.035Z,99168.69
2023-03-26T18:27:38.555Z,99170.66
2023-03-26T18:30:18.398Z,99176.00
2023-03-26T18:32:52.741Z,99167.31
2023-03-26T18:35:23.262Z,99173.88
2023-03-26T18:37:54.327Z,99164.50
2023-03-26T18:40:24.820Z,99167.88
2023-03-26T18:42:55.676Z,99170.13
2023-03-26T18:45:29.030Z,99172.53
2023-03-26T18:47:59.305Z,99177.03
2023-03-26T18:50:30.982Z,99174.38
2023-03-26T18:53:00.913Z,99169.87
2023-03-26T18:55:31.157Z,99158.38
2023-03-26T18:57:59.149Z,99173.38
2023-03-26T19:00:30.422Z,99169.72
2023-03-26T19:03:05.483Z,99165.69
2023-03-26T19:05:35.137Z,99172.56
2023-03-26T19:08:06.431Z,99171.56
2023-03-26T19:10:34.786Z,99167.38
2023-03-26T19:13:04.205Z,99166.38
2023-03-26T19:15:36.582Z,99163.28
2023-03-26T19:18:09.845Z,99170.75
2023-03-26T19:20:42.359Z,99169.63
2023-03-26T19:23:15.562Z,99169.06
2023-03-26T19:25:48.437Z,99168.94
2023-03-26T19:28:20.677Z,99167.38
2023-03-26T19:30:55.415Z,99169.91
2023-03-26T19:33:25.672Z,99168.63
2023-03-26T19:36:03.808Z,99170.87
2023-03-26T19:38:44.208Z,99171.59
2023-03-26T19:41:21.450Z,99166.97
2023-03-26T19:43:51.330Z,99163.16
2023-03-26T19:46:23.374Z,99158.69
2023-03-26T19:48:54.206Z,99164.84
2023-03-26T19:51:25.589Z,99165.94
2023-03-26T19:53:55.951Z,99173.91
2023-03-26T19:56:24.859Z,99167.06
2023-03-26T19:58:53.177Z,99170.16
2023-03-26T20:01:25.652Z,99163.16
2023-03-26T20:03:57.817Z,99173.78
2023-03-26T20:06:41.651Z,99167.19
2023-03-26T20:09:13.437Z,99163.81
2023-03-26T20:11:42.652Z,99166.19
2023-03-26T20:14:15.739Z,99167.88
2023-03-26T20:16:46.019Z,99166.06
2023-03-26T20:19:15.360Z,99166.78
2023-03-26T20:21:44.936Z,99166.78
2023-03-26T20:24:15.764Z,99166.34
2023-03-26T20:26:44.300Z,99163.97
2023-03-26T20:29:12.986Z,99170.37
2023-03-26T20:31:42.501Z,99170.37
2023-03-26T20:34:18.461Z,99172.22
2023-03-26T20:36:47.192Z,99173.91
2023-03-26T20:39:15.552Z,99180.19
2023-03-26T20:41:47.184Z,99173.19
2023-03-26T20:44:17.895Z,99180.06
2023-03-26T20:46:48.258Z,99180.75
2023-03-26T20:49:22.078Z,99176.81
2023-03-26T20:51:50.243Z,99176.28
2023-03-26T20:54:21.309Z,99176.41
2023-03-26T20:56:49.591Z,99177.09
2023-03-26T20:59:22.377Z,99173.44
2023-03-26T21:01:51.692Z,99174.81
2023-03-26T21:04:22.414Z,99177.91
2023-03-26T21:06:50.860Z,99176.38
2023-03-26T21:09:23.820Z,99182.22
2023-03-26T21:12:01.550Z,99186.50
2023-03-26T21:14:34.276Z,99186.66
2023-03-26T21:17:03.019Z,99190.28
2023-03-26T21:19:33.156Z,99190.59
2023-03-26T21:22:12.920Z,99188.78
2023-03-26T21:24:50.633Z,99193.78
2023-03-26T21:27:27.079Z,99195.47
2023-03-26T21:29:56.398Z,99199.25
2023-03-26T21:32:25.333Z,99194.72
2023-03-26T21:34:59.317Z,99204.31
2023-03-26T21:37:28.807Z,99203.16
2023-03-26T21:39:57.474Z,99206.66
2023-03-26T21:42:29.280Z,99208.94
2023-03-26T21:44:58.572Z,99209.22
2023-03-26T21:47:27.176Z,99212.66
2023-03-26T21:49:57.228Z,99213.63
2023-03-26T21:52:26.200Z,99213.16
2023-03-26T21:54:55.002Z,99221.69
2023-03-26T21:57:40.105Z,99219.19
2023-03-26T22:00:15.527Z,99219.44
2023-03-26T22:02:56.305Z,99225.78
2023-03-26T22:05:33.316Z,99224.34
2023-03-26T22:08:03.640Z,99233.06
2023-03-26T22:10:32.797Z,99238.37
2023-03-26T22:13:03.195Z,99239.66
2023-03-26T22:15:31.512Z,99236.25
2023-03-26T22:18:05.310Z,99241.47
2023-03-26T22:20:35.034Z,99242.59
2023-03-26T22:23:03.298Z,99252.06
2023-03-26T22:25:31.301Z,99257.53
2023-03-26T22:27:59.806Z,99249.44
2023-03-26T22:30:28.241Z,99265.97
2023-03-26T22:32:56.807Z,99265.88
2023-03-26T22:35:28.406Z,99278.84
2023-03-26T22:38:00.766Z,99277.50
2023-03-26T22:40:29.978Z,99284.03
2023-03-26T22:42:58.120Z,99289.59
2023-03-26T22:45:26.115Z,99284.87
2023-03-26T22:48:03.470Z,99295.50
2023-03-26T22:50:32.857Z,99299.81
2023-03-26T22:53:02.592Z,99292.84
2023-03-26T22:55:30.665Z,99309.38
2023-03-26T22:57:58.680Z,99318.03
2023-03-26T23:00:27.071Z,99312.84
2023-03-26T23:03:00.182Z,99323.69
2023-03-26T23:05:29.396Z,99325.50
2023-03-26T23:07:58.303Z,99326.34
2023-03-26T23:10:30.214Z,99324.66
2023-03-26T23:12:58.592Z,99332.63
2023-03-26T23:15:26.940Z,99341.88
2023-03-26T23:17:55.368Z,99351.66
2023-03-26T23:20:23.919Z,99356.59
2023-03-26T23:22:54.656Z,99366.13
2023-03-26T23:25:22.746Z,99369.72
2023-03-26T23:27:53.688Z,99376.25
2023-03-26T23:30:21.701Z,99392.03
2023-03-26T23:32:49.867Z,99393.13
2023-03-26T23:35:19.080Z,99390.87
2023-03-26T23:37:50.897Z,99397.66
2023-03-26T23:40:19.373Z,99407.75
2023-03-26T23:42:47.614Z,99400.56
2023-03-26T23:45:17.579Z,99399.13
2023-03-26T23:47:46.700Z,99401.59
2023-03-26T23:50:14.858Z,99401.22
2023-03-26T23:52:45.841Z,99401.72
2023-03-26T23:55:15.227Z,99413.28
2023-03-26T23:57:43.509Z,99417.41
